Sant Pere de Ribes, Spain
Current Conditions -  °F | °C
As of 8:00 PM on Tuesday 21 Oct 2014 (Local Time) from LEBL Reporting Station
Few Clouds Few Clouds  
Wind Chill: 72°   Ceiling: Unl
Heat Index: 72°   Visibility: 4mi
Dew Point: 68°   Wind: 3mph
Humidity: 88%   Direction: 90°E
Pressure: 30.06"   Gusts: NA
Location:  41.27°N, 1.77°E
Report Text: LEBL 211800Z 09003KT 7000 FEW025 22/20 Q1018 NOSIG
Loading
Personal Weather Stations






























Interactive Weather Map
Tropical Storm Tracking
New forecast layout! Learn more

10-Day Weather Forecast

Advertisements
Track Severe Weather on mobile